createdAt,value
2022-12-03T00:00:00.881Z,3.85
2022-12-03T00:01:00.584Z,3.85
2022-12-03T00:02:00.826Z,3.85
2022-12-03T00:03:01.599Z,3.85
2022-12-03T00:04:00.843Z,3.85
2022-12-03T00:05:00.950Z,3.85
2022-12-03T00:06:00.507Z,3.85
2022-12-03T00:07:00.869Z,3.85
2022-12-03T00:08:00.560Z,3.85
2022-12-03T00:09:01.455Z,3.85
2022-12-03T00:10:00.785Z,3.85
2022-12-03T00:11:00.514Z,3.85
2022-12-03T00:12:00.492Z,3.85
2022-12-03T00:13:00.730Z,3.85
2022-12-03T00:14:00.473Z,3.85
2022-12-03T00:15:00.888Z,3.85
2022-12-03T00:16:00.809Z,3.85
2022-12-03T00:17:00.480Z,3.85
2022-12-03T00:18:01.574Z,3.85
2022-12-03T00:19:00.522Z,3.85
2022-12-03T00:20:01.580Z,3.85
2022-12-03T00:21:00.841Z,3.85
2022-12-03T00:22:01.620Z,3.85
2022-12-03T00:23:00.760Z,3.85
2022-12-03T00:24:01.486Z,3.85
2022-12-03T00:25:00.582Z,3.89
2022-12-03T00:26:01.705Z,3.89
2022-12-03T00:27:00.435Z,3.86
2022-12-03T00:28:01.224Z,3.86
2022-12-03T00:29:00.741Z,3.86
2022-12-03T00:30:01.816Z,3.86
2022-12-03T00:31:00.537Z,3.86
2022-12-03T00:32:01.633Z,4.24
2022-12-03T00:33:00.497Z,4.24
2022-12-03T00:34:00.841Z,4.24
2022-12-03T00:35:00.469Z,4.24
2022-12-03T00:36:00.482Z,4.24
2022-12-03T00:37:00.528Z,4.24
2022-12-03T00:38:00.521Z,4.24
2022-12-03T00:39:01.539Z,4.48
2022-12-03T00:40:02.609Z,4.44
2022-12-03T00:41:00.886Z,4.44
2022-12-03T00:42:00.470Z,4.44
2022-12-03T00:43:00.426Z,4.44
2022-12-03T00:44:00.482Z,4.44
2022-12-03T00:45:01.025Z,4.44
2022-12-03T00:46:00.806Z,4.44
2022-12-03T00:47:01.669Z,4.44
2022-12-03T00:48:00.532Z,4
2022-12-03T00:49:01.545Z,4
2022-12-03T00:50:01.990Z,4
2022-12-03T00:51:03.142Z,4
2022-12-03T00:52:02.631Z,4
2022-12-03T00:53:02.468Z,4
2022-12-03T00:54:02.180Z,4
2022-12-03T00:55:01.075Z,4
2022-12-03T00:56:01.644Z,4
2022-12-03T00:57:01.239Z,4
2022-12-03T00:58:01.892Z,4
2022-12-03T00:59:01.517Z,4
2022-12-03T01:00:06.713Z,4
2022-12-03T01:01:02.668Z,4
2022-12-03T01:02:01.523Z,4
2022-12-03T01:03:00.580Z,4
2022-12-03T01:04:00.360Z,4
2022-12-03T01:05:01.102Z,4
2022-12-03T01:06:01.760Z,4
2022-12-03T01:07:00.805Z,4
2022-12-03T01:08:02.137Z,4
2022-12-03T01:09:01.132Z,4
2022-12-03T01:10:04.327Z,4.03
2022-12-03T01:12:01.636Z,4
2022-12-03T01:13:02.948Z,4
2022-12-03T01:14:00.893Z,4
2022-12-03T01:15:00.869Z,4
2022-12-03T01:16:01.499Z,4
2022-12-03T01:17:00.797Z,4
2022-12-03T01:18:01.976Z,4
2022-12-03T01:19:00.431Z,4
2022-12-03T01:20:00.483Z,4
2022-12-03T01:21:02.235Z,4
2022-12-03T01:23:00.471Z,4
2022-12-03T01:24:00.947Z,4
2022-12-03T01:25:00.572Z,4
2022-12-03T01:26:01.576Z,4
2022-12-03T01:27:02.560Z,4
2022-12-03T01:29:01.125Z,4
2022-12-03T01:30:02.507Z,4
2022-12-03T01:31:01.199Z,4
2022-12-03T01:32:01.055Z,4
2022-12-03T01:33:02.727Z,4.08
2022-12-03T01:34:02.964Z,4.08
2022-12-03T01:35:02.363Z,4.08
2022-12-03T01:36:00.423Z,4.08
2022-12-03T01:37:00.514Z,4.25
2022-12-03T01:39:01.482Z,4.18
2022-12-03T01:40:00.723Z,4.18
2022-12-03T01:41:03.221Z,4.18
2022-12-03T01:42:00.456Z,4.18
2022-12-03T01:43:01.682Z,4.18
2022-12-03T01:44:02.285Z,4.18
2022-12-03T01:46:00.622Z,4.18
2022-12-03T01:47:01.178Z,4.18
2022-12-03T01:48:01.968Z,4.18
2022-12-03T01:49:01.863Z,4.18
2022-12-03T01:50:00.451Z,4.18
2022-12-03T01:51:01.487Z,4.18
2022-12-03T01:52:01.461Z,4.18
2022-12-03T01:53:01.484Z,4.18
2022-12-03T01:54:00.916Z,4.18
2022-12-03T01:55:00.490Z,4.18
2022-12-03T01:56:01.173Z,4.18
2022-12-03T01:57:00.477Z,4.18
2022-12-03T01:58:01.552Z,4.18
2022-12-03T01:59:00.615Z,4.18
2022-12-03T02:00:01.577Z,4.18
2022-12-03T02:01:01.327Z,4.18
2022-12-03T02:02:00.917Z,4.18
2022-12-03T02:03:00.639Z,4.18
2022-12-03T02:04:00.539Z,4.18
2022-12-03T02:05:03.117Z,3.75
2022-12-03T02:06:01.617Z,3.75
2022-12-03T02:07:01.166Z,3.75
2022-12-03T02:08:00.900Z,3.75
2022-12-03T02:09:00.641Z,3.75
2022-12-03T02:10:01.422Z,3.75
2022-12-03T02:11:01.204Z,3.75
2022-12-03T02:12:00.675Z,3.75
2022-12-03T02:13:00.509Z,3.75
2022-12-03T02:14:01.780Z,3.75
2022-12-03T02:15:00.491Z,3.75
2022-12-03T02:16:01.635Z,3.75
2022-12-03T02:17:00.860Z,3.75
2022-12-03T02:18:01.036Z,3.75
2022-12-03T02:19:00.971Z,3.75
2022-12-03T02:20:01.069Z,3.75
2022-12-03T02:21:01.232Z,3.75
2022-12-03T02:23:01.745Z,3.75
2022-12-03T02:24:00.481Z,3.75
2022-12-03T02:25:00.622Z,3.75
2022-12-03T02:26:00.619Z,3.75
2022-12-03T02:27:01.538Z,3.75
2022-12-03T02:28:00.803Z,3.75
2022-12-03T02:29:00.508Z,3.75
2022-12-03T02:30:00.459Z,3.75
2022-12-03T02:31:01.853Z,3.75
2022-12-03T02:34:00.794Z,3.75
2022-12-03T02:35:01.079Z,3.75
2022-12-03T02:36:03.905Z,4
2022-12-03T02:37:01.035Z,4
2022-12-03T02:38:00.843Z,4
2022-12-03T02:39:04.840Z,4
2022-12-03T02:42:00.535Z,4
2022-12-03T02:43:01.644Z,4
2022-12-03T02:44:00.449Z,4
2022-12-03T02:45:05.119Z,4
2022-12-03T02:46:00.449Z,4
2022-12-03T02:47:01.556Z,4
2022-12-03T02:48:00.501Z,4
2022-12-03T02:49:00.464Z,4
2022-12-03T02:50:01.650Z,4
2022-12-03T02:51:00.511Z,4
2022-12-03T02:52:00.481Z,4
2022-12-03T02:53:00.636Z,4
2022-12-03T02:54:01.594Z,4
2022-12-03T02:55:00.608Z,4
2022-12-03T02:56:01.120Z,4
2022-12-03T02:57:00.438Z,4
2022-12-03T02:58:01.778Z,4
2022-12-03T02:59:01.566Z,4
2022-12-03T03:00:01.004Z,4
2022-12-03T03:01:00.691Z,4
2022-12-03T03:02:01.738Z,4
2022-12-03T03:03:00.508Z,4
2022-12-03T03:04:00.581Z,4
2022-12-03T03:05:00.855Z,4
2022-12-03T03:06:01.650Z,4
2022-12-03T03:07:00.371Z,4
2022-12-03T03:08:01.524Z,4
2022-12-03T03:09:00.483Z,4
2022-12-03T03:10:00.597Z,4
2022-12-03T03:11:01.308Z,4
2022-12-03T03:12:01.584Z,4
2022-12-03T03:13:00.563Z,4
2022-12-03T03:14:00.770Z,4
2022-12-03T03:15:01.789Z,4
2022-12-03T03:16:00.581Z,4
2022-12-03T03:17:00.555Z,4
2022-12-03T03:18:00.549Z,4
2022-12-03T03:19:00.634Z,4
2022-12-03T03:21:01.684Z,4
2022-12-03T03:22:00.496Z,4
2022-12-03T03:23:01.092Z,4
2022-12-03T03:24:00.527Z,4
2022-12-03T03:25:01.367Z,4
2022-12-03T03:26:02.051Z,4
2022-12-03T03:27:01.599Z,4
2022-12-03T03:28:00.557Z,4
2022-12-03T03:29:01.568Z,4
2022-12-03T03:30:00.463Z,4
2022-12-03T03:31:01.580Z,4
2022-12-03T03:32:00.877Z,4
2022-12-03T03:33:00.631Z,3.93
2022-12-03T03:34:00.734Z,3.93
2022-12-03T03:35:00.563Z,3.93
2022-12-03T03:36:01.069Z,4.25
2022-12-03T03:37:00.641Z,4.25
2022-12-03T03:39:01.014Z,4.25
2022-12-03T03:40:00.755Z,4.25
2022-12-03T03:41:00.620Z,4.25
2022-12-03T03:42:01.926Z,4.25
2022-12-03T03:43:00.648Z,4.25
2022-12-03T03:44:01.697Z,4.25
2022-12-03T03:45:01.652Z,4.25
2022-12-03T03:46:01.892Z,4.25
2022-12-03T03:47:01.219Z,4.25
2022-12-03T03:48:01.820Z,4.25
2022-12-03T03:50:03.104Z,4.25
2022-12-03T03:51:00.457Z,4.25
2022-12-03T03:52:01.583Z,4.25
2022-12-03T03:53:00.517Z,4.25
2022-12-03T03:54:01.124Z,4.25
2022-12-03T03:55:00.657Z,4.25
2022-12-03T03:56:01.201Z,4.25
2022-12-03T03:57:00.549Z,4.25
2022-12-03T03:58:01.501Z,4.25
2022-12-03T03:59:00.496Z,4.25
2022-12-03T04:00:02.651Z,4.25
2022-12-03T04:01:00.575Z,4.25
2022-12-03T04:02:01.771Z,4.25
2022-12-03T04:03:01.735Z,4.25
2022-12-03T04:04:00.606Z,4.25
2022-12-03T04:05:01.228Z,4.25
2022-12-03T04:06:00.479Z,4.25
2022-12-03T04:07:01.650Z,4.25
2022-12-03T04:08:00.826Z,4.25
2022-12-03T04:09:00.512Z,4.25
2022-12-03T04:10:00.603Z,4.25
2022-12-03T04:11:00.616Z,4.25
2022-12-03T04:12:00.671Z,4.25
2022-12-03T04:13:00.534Z,4.25
2022-12-03T04:14:00.560Z,4.25
2022-12-03T04:15:00.689Z,4.25
2022-12-03T04:16:00.533Z,4.25
2022-12-03T04:17:01.586Z,4.25
2022-12-03T04:18:00.511Z,4.25
2022-12-03T04:19:00.629Z,4.25
2022-12-03T04:20:01.668Z,4.25
2022-12-03T04:21:01.772Z,4.25
2022-12-03T04:22:00.633Z,4.25
2022-12-03T04:23:01.661Z,4.04
2022-12-03T04:24:00.423Z,4.04
2022-12-03T04:25:01.565Z,4.04
2022-12-03T04:26:01.654Z,4.04
2022-12-03T04:27:01.584Z,4.04
2022-12-03T04:28:00.449Z,4.04
2022-12-03T04:29:00.840Z,4.04
2022-12-03T04:30:00.550Z,3.99
2022-12-03T04:31:00.509Z,3.99
2022-12-03T04:32:00.581Z,3.99
2022-12-03T04:33:00.659Z,3.99
2022-12-03T04:34:00.415Z,3.99
2022-12-03T04:35:00.514Z,3.99
2022-12-03T04:36:00.751Z,3.99
2022-12-03T04:37:00.782Z,3.99
2022-12-03T04:38:01.653Z,3.99
2022-12-03T04:39:00.492Z,3.99
2022-12-03T04:40:01.863Z,3.99
2022-12-03T04:41:00.469Z,3.99
2022-12-03T04:42:00.451Z,3.99
2022-12-03T04:43:00.978Z,3.99
2022-12-03T04:44:01.593Z,3.99
2022-12-03T04:45:00.547Z,3.99
2022-12-03T04:46:01.204Z,3.99
2022-12-03T04:47:00.406Z,3.99
2022-12-03T04:48:01.554Z,3.99
2022-12-03T04:49:00.517Z,3.99
2022-12-03T04:50:01.512Z,3.99
2022-12-03T04:51:00.633Z,3.99
2022-12-03T04:52:00.854Z,3.99
2022-12-03T04:53:00.616Z,3.99
2022-12-03T04:54:01.509Z,3.99
2022-12-03T04:55:00.577Z,3.99
2022-12-03T04:56:00.579Z,3.99
2022-12-03T04:57:00.583Z,3.82
2022-12-03T04:58:00.456Z,3.82
2022-12-03T04:59:01.377Z,3.82
2022-12-03T05:00:00.713Z,4.34
2022-12-03T05:01:01.150Z,4.34
2022-12-03T05:02:00.660Z,4.34
2022-12-03T05:03:01.080Z,4.34
2022-12-03T05:04:00.466Z,4.34
2022-12-03T05:05:00.572Z,4.34
2022-12-03T05:06:00.861Z,4.3
2022-12-03T05:07:00.520Z,4.3
2022-12-03T05:08:00.541Z,4.3
2022-12-03T05:09:00.750Z,4.3
2022-12-03T05:10:00.507Z,4.3
2022-12-03T05:11:00.547Z,4.3
2022-12-03T05:12:00.554Z,4.3
2022-12-03T05:13:01.067Z,4.3
2022-12-03T05:14:00.456Z,4.3
2022-12-03T05:15:01.581Z,4.3
2022-12-03T05:16:00.516Z,4.3
2022-12-03T05:17:01.672Z,4.3
2022-12-03T05:18:00.798Z,4.07
2022-12-03T05:19:00.941Z,4.07
2022-12-03T05:20:00.495Z,4.07
2022-12-03T05:21:00.914Z,4.07
2022-12-03T05:22:00.608Z,4.07
2022-12-03T05:23:01.604Z,4.07
2022-12-03T05:24:00.589Z,4.07
2022-12-03T05:25:00.607Z,4.07
2022-12-03T05:26:00.466Z,4.07
2022-12-03T05:27:00.548Z,4.07
2022-12-03T05:28:01.861Z,4.07
2022-12-03T05:29:00.486Z,4.07
2022-12-03T05:30:01.773Z,4.07
2022-12-03T05:31:00.928Z,4.07
2022-12-03T05:32:01.362Z,4.07
2022-12-03T05:33:01.098Z,4.07
2022-12-03T05:34:01.469Z,4.07
2022-12-03T05:35:00.615Z,4.07
2022-12-03T05:36:01.937Z,4.07
2022-12-03T05:37:00.997Z,4.07
2022-12-03T05:38:01.602Z,4.07
2022-12-03T05:39:00.859Z,4.07
2022-12-03T05:40:00.936Z,4.07
2022-12-03T05:41:00.902Z,4.07
2022-12-03T05:42:01.530Z,4.07
2022-12-03T05:43:00.696Z,4.07
2022-12-03T05:44:01.472Z,4.07
2022-12-03T05:45:00.514Z,4.07
2022-12-03T05:46:01.599Z,4.07
2022-12-03T05:47:00.478Z,4.07
2022-12-03T05:48:01.529Z,4.07
2022-12-03T05:49:00.536Z,4.07
2022-12-03T05:50:01.553Z,4.07
2022-12-03T05:51:00.449Z,4.07
2022-12-03T05:52:00.528Z,4.07
2022-12-03T05:53:00.505Z,4.07
2022-12-03T05:54:00.692Z,4.07
2022-12-03T05:55:00.628Z,4.07
2022-12-03T05:56:00.485Z,4.07
2022-12-03T05:57:01.223Z,4.07
2022-12-03T05:58:00.958Z,4.51
2022-12-03T05:59:01.575Z,4.51
2022-12-03T06:00:02.957Z,4.51
2022-12-03T06:01:01.576Z,4.51
2022-12-03T06:02:00.667Z,4.51
2022-12-03T06:03:02.333Z,4.51
2022-12-03T06:04:00.555Z,4.71
2022-12-03T06:05:00.576Z,4.71
2022-12-03T06:06:00.415Z,4.71
2022-12-03T06:07:01.318Z,4.71
2022-12-03T06:08:01.880Z,4.71
2022-12-03T06:09:00.413Z,4.71
2022-12-03T06:10:00.504Z,4.71
2022-12-03T06:11:00.451Z,4.71
2022-12-03T06:12:00.412Z,4.71
2022-12-03T06:13:00.819Z,4.79
2022-12-03T06:14:00.472Z,4.79
2022-12-03T06:15:01.056Z,4.79
2022-12-03T06:16:00.542Z,4.79
2022-12-03T06:17:00.485Z,4.79
2022-12-03T06:18:00.919Z,4.79
2022-12-03T06:19:00.444Z,4.79
2022-12-03T06:20:01.540Z,4.79
2022-12-03T06:21:00.561Z,4.79
2022-12-03T06:22:01.943Z,4.79
2022-12-03T06:23:00.510Z,4.79
2022-12-03T06:24:00.506Z,4.79
2022-12-03T06:25:06.182Z,4.79
2022-12-03T06:27:00.953Z,4.79
2022-12-03T06:28:01.509Z,4.79
2022-12-03T06:29:00.631Z,4.79
2022-12-03T06:30:00.763Z,4.79
2022-12-03T06:31:00.545Z,4.79
2022-12-03T06:32:00.541Z,4.79
2022-12-03T06:33:00.557Z,4.79
2022-12-03T06:34:00.434Z,4.79
2022-12-03T06:35:00.602Z,4.79
2022-12-03T06:36:01.080Z,4.79
2022-12-03T06:37:00.601Z,4.79
2022-12-03T06:38:00.504Z,4.79
2022-12-03T06:40:01.047Z,4.79
2022-12-03T06:41:01.132Z,4.79
2022-12-03T06:42:00.627Z,4.79
2022-12-03T06:43:00.980Z,4.79
2022-12-03T06:44:00.471Z,4.79
2022-12-03T06:45:02.206Z,4.79
2022-12-03T06:46:00.568Z,4.79
2022-12-03T06:47:00.996Z,4.79
2022-12-03T06:48:00.674Z,4.79
2022-12-03T06:49:00.548Z,4.79
2022-12-03T06:50:00.550Z,4.79
2022-12-03T06:51:01.309Z,4.79
2022-12-03T06:52:00.463Z,4.79
2022-12-03T06:53:00.470Z,4.79
2022-12-03T06:54:00.464Z,4.79
2022-12-03T06:55:00.481Z,4.79
2022-12-03T06:56:00.469Z,4.79
2022-12-03T06:57:00.803Z,4.79
2022-12-03T06:58:00.472Z,4.79
2022-12-03T06:59:00.952Z,4.79
2022-12-03T07:00:01.013Z,4.79
2022-12-03T07:01:01.623Z,4.71
2022-12-03T07:02:00.711Z,4.62
2022-12-03T07:04:00.553Z,4.62
2022-12-03T07:05:01.598Z,4.62
2022-12-03T07:06:00.506Z,4.62
2022-12-03T07:07:00.705Z,4.86
2022-12-03T07:08:00.537Z,4.86
2022-12-03T07:09:00.627Z,4.86
2022-12-03T07:10:00.937Z,4.86
2022-12-03T07:11:00.455Z,5.1
2022-12-03T07:12:00.421Z,5.1
2022-12-03T07:13:00.528Z,5.1
2022-12-03T07:14:05.598Z,5.2
2022-12-03T07:15:00.637Z,5.2
2022-12-03T07:16:00.568Z,5.2
2022-12-03T07:17:00.568Z,5.2
2022-12-03T07:18:01.923Z,5.2
2022-12-03T07:19:00.417Z,5.2
2022-12-03T07:20:01.625Z,5.2
2022-12-03T07:21:00.507Z,5.2
2022-12-03T07:22:00.889Z,5.2
2022-12-03T07:23:00.636Z,5.2
2022-12-03T07:24:00.966Z,5.2
2022-12-03T07:25:00.537Z,5.2
2022-12-03T07:26:01.816Z,5.2
2022-12-03T07:27:00.459Z,5.2
2022-12-03T07:28:00.875Z,5.2
2022-12-03T07:29:00.527Z,5.2
2022-12-03T07:30:01.603Z,5.2
2022-12-03T07:31:00.598Z,5.2
2022-12-03T07:32:00.456Z,5.2
2022-12-03T07:33:00.569Z,5.2
2022-12-03T07:34:00.465Z,5.2
2022-12-03T07:35:00.657Z,5.2
2022-12-03T07:36:00.427Z,5.2
2022-12-03T07:37:02.271Z,5.2
2022-12-03T07:38:00.788Z,5.2
2022-12-03T07:39:00.452Z,5.2
2022-12-03T07:40:00.588Z,5.2
2022-12-03T07:41:00.492Z,5.2
2022-12-03T07:42:00.731Z,5.2
2022-12-03T07:43:00.510Z,5.2
2022-12-03T07:44:00.465Z,5.2
2022-12-03T07:45:00.565Z,5.2
2022-12-03T07:46:00.514Z,5.2
2022-12-03T07:47:00.775Z,5.2
2022-12-03T07:48:00.544Z,5.2
2022-12-03T07:49:00.701Z,5.2
2022-12-03T07:50:00.584Z,4.66
2022-12-03T07:51:01.634Z,4.66
2022-12-03T07:52:00.590Z,4.66
2022-12-03T07:53:00.742Z,4.66
2022-12-03T07:54:00.539Z,4.66
2022-12-03T07:55:01.836Z,4.66
2022-12-03T07:56:02.413Z,4.66
2022-12-03T07:57:01.834Z,4.66
2022-12-03T07:58:00.455Z,4.66
2022-12-03T07:59:00.637Z,4.66
2022-12-03T08:00:01.971Z,4.66
2022-12-03T08:01:01.053Z,4.66
2022-12-03T08:02:00.682Z,4.66
2022-12-03T08:03:00.503Z,4.89
2022-12-03T08:04:00.544Z,4.89
2022-12-03T08:05:00.594Z,4.89
2022-12-03T08:06:01.635Z,4.89
2022-12-03T08:07:00.430Z,4.89
2022-12-03T08:08:01.571Z,4.89
2022-12-03T08:09:00.543Z,4.89
2022-12-03T08:10:01.049Z,5.26
2022-12-03T08:11:00.582Z,5.26
2022-12-03T08:12:00.479Z,5.26
2022-12-03T08:13:00.491Z,5.26
2022-12-03T08:14:01.495Z,5.26
2022-12-03T08:15:00.643Z,5.07
2022-12-03T08:16:00.467Z,5.07
2022-12-03T08:17:00.420Z,5.07
2022-12-03T08:18:01.451Z,5.07
2022-12-03T08:19:00.494Z,5.07
2022-12-03T08:20:01.682Z,5.07
2022-12-03T08:21:00.464Z,5.26
2022-12-03T08:22:01.775Z,5.31
2022-12-03T08:23:00.547Z,5.31
2022-12-03T08:24:00.501Z,5.31
2022-12-03T08:25:00.582Z,5.31
2022-12-03T08:26:00.652Z,5.31
2022-12-03T08:27:00.434Z,5.31
2022-12-03T08:28:01.610Z,5.31
2022-12-03T08:29:01.586Z,5.31
2022-12-03T08:30:00.579Z,5.31
2022-12-03T08:31:00.703Z,5.31
2022-12-03T08:32:00.557Z,5.31
2022-12-03T08:33:00.499Z,5.31
2022-12-03T08:34:00.484Z,5.31
2022-12-03T08:35:01.644Z,5.31
2022-12-03T08:36:00.502Z,5.31
2022-12-03T08:37:02.085Z,5.31
2022-12-03T08:39:01.454Z,5.31
2022-12-03T08:40:00.637Z,5.31
2022-12-03T08:41:01.124Z,5.31
2022-12-03T08:42:01.286Z,5.31
2022-12-03T08:43:01.444Z,5.31
2022-12-03T08:44:00.469Z,5.31
2022-12-03T08:45:01.464Z,5.28
2022-12-03T08:46:01.684Z,5.27
2022-12-03T08:47:00.739Z,5.27
2022-12-03T08:48:00.450Z,5.27
2022-12-03T08:49:00.433Z,5.27
2022-12-03T08:50:00.513Z,5.27
2022-12-03T08:51:01.131Z,5.27
2022-12-03T08:52:01.448Z,5.27
2022-12-03T08:53:00.822Z,5.27
2022-12-03T08:54:01.933Z,5.27
2022-12-03T08:55:00.602Z,5.27
2022-12-03T08:56:01.300Z,5.27
2022-12-03T08:57:00.539Z,5.27
2022-12-03T08:58:01.145Z,5.27
2022-12-03T08:59:00.446Z,5.27
2022-12-03T09:00:01.966Z,5.27
2022-12-03T09:01:01.692Z,5.27
2022-12-03T09:02:01.434Z,5.27
2022-12-03T09:03:00.518Z,5.27
2022-12-03T09:04:00.571Z,5.27
2022-12-03T09:05:00.498Z,5.27
2022-12-03T09:06:01.528Z,5.27
2022-12-03T09:07:00.589Z,5.27
2022-12-03T09:08:00.937Z,5.27
2022-12-03T09:09:05.276Z,5.27
2022-12-03T09:10:00.577Z,5.38
2022-12-03T09:11:00.658Z,5.38
2022-12-03T09:12:01.618Z,5.38
2022-12-03T09:13:00.713Z,5.38
2022-12-03T09:14:00.450Z,5.38
2022-12-03T09:15:00.829Z,5.38
2022-12-03T09:16:00.473Z,5.38
2022-12-03T09:17:00.554Z,5.38
2022-12-03T09:18:00.476Z,5.38
2022-12-03T09:19:00.472Z,5.38
2022-12-03T09:20:00.485Z,5.38
2022-12-03T09:21:00.534Z,5.38
2022-12-03T09:22:00.514Z,5.38
2022-12-03T09:23:00.500Z,5.38
2022-12-03T09:24:00.820Z,5.38
2022-12-03T09:25:02.240Z,5.38
2022-12-03T09:26:00.583Z,5.38
2022-12-03T09:27:00.498Z,5.38
2022-12-03T09:28:00.504Z,5.38
2022-12-03T09:29:01.530Z,5.38
2022-12-03T09:30:00.638Z,5.38
2022-12-03T09:31:02.043Z,5.38
2022-12-03T09:32:00.600Z,5.38
2022-12-03T09:33:00.491Z,5.38
2022-12-03T09:34:00.421Z,5.38
2022-12-03T09:36:00.502Z,5.38
2022-12-03T09:37:01.086Z,5.38
2022-12-03T09:38:00.508Z,5.38
2022-12-03T09:39:00.682Z,5.38
2022-12-03T09:40:00.514Z,5.38
2022-12-03T09:41:00.464Z,5.38
2022-12-03T09:42:01.947Z,5.38
2022-12-03T09:43:03.557Z,5.38
2022-12-03T09:44:04.863Z,5.38
2022-12-03T09:45:00.474Z,5.38
2022-12-03T09:46:00.787Z,5.38
2022-12-03T09:47:00.447Z,5.1
2022-12-03T09:48:00.439Z,5.1
2022-12-03T09:49:00.446Z,5.1
2022-12-03T09:50:01.457Z,5.1
2022-12-03T09:51:00.519Z,5.1
2022-12-03T09:52:01.193Z,5.1
2022-12-03T09:53:00.519Z,5.1
2022-12-03T09:54:01.295Z,5.1
2022-12-03T09:55:00.495Z,5.1
2022-12-03T09:56:00.632Z,5.1
2022-12-03T09:57:00.719Z,5.1
2022-12-03T09:58:00.490Z,5.1
2022-12-03T09:59:00.479Z,5.1
2022-12-03T10:00:01.648Z,5.1
2022-12-03T10:01:01.613Z,5.1
2022-12-03T10:02:00.853Z,5.09
2022-12-03T10:03:00.523Z,5.09
2022-12-03T10:04:01.496Z,5.09
2022-12-03T10:05:00.602Z,5.09
2022-12-03T10:06:00.507Z,5.09
2022-12-03T10:07:00.439Z,5.09
2022-12-03T10:08:01.015Z,5.09
2022-12-03T10:09:00.656Z,4.94
2022-12-03T10:10:00.495Z,4.94
2022-12-03T10:11:01.303Z,4.94
2022-12-03T10:12:00.498Z,4.94
2022-12-03T10:13:01.710Z,4.94
2022-12-03T10:14:00.602Z,4.94
2022-12-03T10:15:00.770Z,4.94
2022-12-03T10:16:00.670Z,4.94
2022-12-03T10:17:00.608Z,4.94
2022-12-03T10:18:00.436Z,4.94
2022-12-03T10:19:03.877Z,4.94
2022-12-03T10:20:00.481Z,4.94
2022-12-03T10:21:01.171Z,4.94
2022-12-03T10:22:00.530Z,4.94
2022-12-03T10:23:01.749Z,4.94
2022-12-03T10:24:00.545Z,4.94
2022-12-03T10:25:00.481Z,4.97
2022-12-03T10:26:00.479Z,4.97
2022-12-03T10:27:00.522Z,4.97
2022-12-03T10:28:00.677Z,4.97
2022-12-03T10:29:01.864Z,4.97
2022-12-03T10:30:05.081Z,4.97
2022-12-03T10:31:01.603Z,4.97
2022-12-03T10:32:00.526Z,4.97
2022-12-03T10:33:00.677Z,4.97
2022-12-03T10:34:00.613Z,4.97
2022-12-03T10:35:00.862Z,4.97
2022-12-03T10:36:00.431Z,4.97
2022-12-03T10:37:00.789Z,4.97
2022-12-03T10:38:01.724Z,4.97
2022-12-03T10:39:00.529Z,4.97
2022-12-03T10:40:01.637Z,4.97
2022-12-03T10:41:00.801Z,4.97
2022-12-03T10:42:00.784Z,4.97
2022-12-03T10:43:00.456Z,4.97
2022-12-03T10:44:01.226Z,4.97
2022-12-03T10:45:00.725Z,4.97
2022-12-03T10:46:04.187Z,4.97
2022-12-03T10:47:00.805Z,4.97
2022-12-03T10:48:01.723Z,4.97
2022-12-03T10:49:00.568Z,4.97
2022-12-03T10:50:01.237Z,4.97
2022-12-03T10:51:00.572Z,4.97
2022-12-03T10:52:09.744Z,4.97
2022-12-03T10:53:00.476Z,4.97
2022-12-03T10:54:01.596Z,4.97
2022-12-03T10:55:05.695Z,4.97
2022-12-03T10:56:00.534Z,4.97
2022-12-03T10:57:00.530Z,4.97
2022-12-03T10:58:00.667Z,4.97
2022-12-03T10:59:00.579Z,5.01
2022-12-03T11:00:00.739Z,5.01
2022-12-03T11:01:01.750Z,5.01
2022-12-03T11:02:00.635Z,5.01
2022-12-03T11:04:00.836Z,5.01
2022-12-03T11:05:00.559Z,5.01
2022-12-03T11:06:00.517Z,5.2
2022-12-03T11:07:00.440Z,5.2
2022-12-03T11:08:00.786Z,5.2
2022-12-03T11:09:08.318Z,5.2
2022-12-03T11:10:00.514Z,5.2
2022-12-03T11:11:00.567Z,5.2
2022-12-03T11:12:00.459Z,5.2
2022-12-03T11:13:00.445Z,5.2
2022-12-03T11:14:00.638Z,5.2
2022-12-03T11:15:00.547Z,5.2
2022-12-03T11:16:00.498Z,5.07
2022-12-03T11:17:01.203Z,5.07
2022-12-03T11:18:00.437Z,5.07
2022-12-03T11:19:01.592Z,5.07
2022-12-03T11:20:00.459Z,5.07
2022-12-03T11:21:01.644Z,5.07
2022-12-03T11:22:00.521Z,5.07
2022-12-03T11:23:00.490Z,5.07
2022-12-03T11:24:00.600Z,5.07
2022-12-03T11:26:00.587Z,5.44
2022-12-03T11:27:00.711Z,5.44
2022-12-03T11:28:00.511Z,5.44
2022-12-03T11:29:00.451Z,5.44
2022-12-03T11:30:00.542Z,5.89
2022-12-03T11:31:00.477Z,5.89
2022-12-03T11:32:00.572Z,5.89
2022-12-03T11:33:00.506Z,5.88
2022-12-03T11:34:00.432Z,5.88
2022-12-03T11:35:00.477Z,5.88
2022-12-03T11:36:01.260Z,5.88
2022-12-03T11:37:01.833Z,5.88
2022-12-03T11:39:00.624Z,5.88
2022-12-03T11:40:01.003Z,5.88
2022-12-03T11:41:00.514Z,5.88
2022-12-03T11:42:00.435Z,5.88
2022-12-03T11:43:00.443Z,5.88
2022-12-03T11:44:00.382Z,5.88
2022-12-03T11:45:00.728Z,5.88
2022-12-03T11:46:04.201Z,5.88
2022-12-03T11:47:05.926Z,5.88
2022-12-03T11:48:00.461Z,5.88
2022-12-03T11:49:00.624Z,5.88
2022-12-03T11:50:00.914Z,5.88
2022-12-03T11:51:00.370Z,5.88
2022-12-03T11:52:00.519Z,5.88
2022-12-03T11:53:00.447Z,5.88
2022-12-03T11:54:00.680Z,5.88
2022-12-03T11:55:01.376Z,5.88
2022-12-03T11:56:04.352Z,5.88
2022-12-03T11:57:00.661Z,5.88
2022-12-03T11:58:00.665Z,5.55
2022-12-03T11:59:01.528Z,5.55
2022-12-03T12:00:00.860Z,5.55
2022-12-03T12:01:01.525Z,5.55
2022-12-03T12:02:00.506Z,5.55
2022-12-03T12:03:00.681Z,5.55
2022-12-03T12:04:00.530Z,5.55
2022-12-03T12:05:00.591Z,5.55
2022-12-03T12:06:00.459Z,5.55
2022-12-03T12:07:00.748Z,5.55
2022-12-03T12:08:00.825Z,5.55
2022-12-03T12:09:00.633Z,5.55
2022-12-03T12:10:00.556Z,5.55
2022-12-03T12:11:01.589Z,5.55
2022-12-03T12:12:00.761Z,5.37
2022-12-03T12:13:00.445Z,5.37
2022-12-03T12:14:00.556Z,5.37
2022-12-03T12:15:00.700Z,5.3
2022-12-03T12:16:00.442Z,5.3
2022-12-03T12:17:00.665Z,5.3
2022-12-03T12:18:00.494Z,5.3
2022-12-03T12:19:00.459Z,5.3
2022-12-03T12:20:00.878Z,5.55
2022-12-03T12:21:00.463Z,5.55
2022-12-03T12:22:03.389Z,5.75
2022-12-03T12:23:00.439Z,5.75
2022-12-03T12:24:00.386Z,5.75
2022-12-03T12:25:00.648Z,5.75
2022-12-03T12:26:00.449Z,5.75
2022-12-03T12:27:00.487Z,5.75
2022-12-03T12:28:01.811Z,5.75
2022-12-03T12:29:00.435Z,5.75
2022-12-03T12:30:00.469Z,5.75
2022-12-03T12:31:04.092Z,5.75
2022-12-03T12:32:01.600Z,5.75
2022-12-03T12:33:00.618Z,5.97
2022-12-03T12:34:00.457Z,5.97
2022-12-03T12:35:00.477Z,6.1
2022-12-03T12:36:01.475Z,6.1
2022-12-03T12:37:00.473Z,6.1
2022-12-03T12:39:00.532Z,6.1
2022-12-03T12:40:00.470Z,6.1
2022-12-03T12:41:00.529Z,6.1
2022-12-03T12:42:00.699Z,6.1
2022-12-03T12:43:00.664Z,6.1
2022-12-03T12:44:00.834Z,6.1
2022-12-03T12:45:00.421Z,6.1
2022-12-03T12:46:13.661Z,6.1
2022-12-03T12:47:00.682Z,6.1
2022-12-03T12:48:00.428Z,6.1
2022-12-03T12:49:00.404Z,6.1
2022-12-03T12:50:00.633Z,6.1
2022-12-03T12:51:00.567Z,6.1
2022-12-03T12:52:00.442Z,6.1
2022-12-03T12:53:00.590Z,6.1
2022-12-03T12:54:01.801Z,6.1
2022-12-03T12:55:04.946Z,6.1
2022-12-03T12:56:00.805Z,5.57
2022-12-03T12:57:01.572Z,5.57
2022-12-03T12:58:00.476Z,5.54
2022-12-03T12:59:00.485Z,5.54
2022-12-03T13:00:02.240Z,5.54
2022-12-03T13:01:01.158Z,5.54
2022-12-03T13:02:04.562Z,5.54
2022-12-03T13:03:00.837Z,5.54
2022-12-03T13:04:00.635Z,5.54
2022-12-03T13:05:01.710Z,5.66
2022-12-03T13:06:00.459Z,5.66
2022-12-03T13:07:00.474Z,5.66
2022-12-03T13:08:02.739Z,5.66
2022-12-03T13:09:00.496Z,5.66
2022-12-03T13:10:00.537Z,5.66
2022-12-03T13:11:00.458Z,5.66
2022-12-03T13:12:00.559Z,5.66
2022-12-03T13:13:00.512Z,5.66
2022-12-03T13:14:00.602Z,5.66
2022-12-03T13:15:00.716Z,5.66
2022-12-03T13:16:01.293Z,5.66
2022-12-03T13:17:00.517Z,5.66
2022-12-03T13:18:00.429Z,5.66
2022-12-03T13:19:00.729Z,5.66
2022-12-03T13:20:06.732Z,5.66
2022-12-03T13:21:00.437Z,5.66
2022-12-03T13:22:03.171Z,5.66
2022-12-03T13:23:02.656Z,5.66
2022-12-03T13:24:01.322Z,5.66
2022-12-03T13:25:00.531Z,5.66
2022-12-03T13:26:14.143Z,5.66
2022-12-03T13:27:00.522Z,5.66
2022-12-03T13:28:00.865Z,5.66
2022-12-03T13:29:00.437Z,5.66
2022-12-03T13:30:01.903Z,5.73
2022-12-03T13:31:00.546Z,5.73
2022-12-03T13:32:00.636Z,5.73
2022-12-03T13:33:02.364Z,5.73
2022-12-03T13:34:00.531Z,5.73
2022-12-03T13:35:00.425Z,5.73
2022-12-03T13:36:00.597Z,5.73
2022-12-03T13:37:01.165Z,5.73
2022-12-03T13:38:00.632Z,5.73
2022-12-03T13:39:01.999Z,5.73
2022-12-03T13:40:00.759Z,5.73
2022-12-03T13:41:00.996Z,5.73
2022-12-03T13:42:00.455Z,5.23
2022-12-03T13:43:00.689Z,5.23
2022-12-03T13:44:00.746Z,5.23
2022-12-03T13:45:02.169Z,5.23
2022-12-03T13:46:00.910Z,5.23
2022-12-03T13:47:00.809Z,5.23
2022-12-03T13:48:01.226Z,5.23
2022-12-03T13:49:02.194Z,5.23
2022-12-03T13:50:00.817Z,5.23
2022-12-03T13:51:02.800Z,5.23
2022-12-03T13:52:00.463Z,5.23
2022-12-03T13:53:00.619Z,5.23